createdAt,value
2023-04-25T00:00:00.454Z,1.20
2023-04-25T00:05:04.582Z,1.60
2023-04-25T00:10:13.540Z,1.23
2023-04-25T00:15:23.904Z,1.48
2023-04-25T00:20:27.631Z,1.23
2023-04-25T00:25:36.278Z,1.40
2023-04-25T00:30:46.500Z,1.77
2023-04-25T00:35:55.561Z,1.65
2023-04-25T00:41:04.234Z,1.60
2023-04-25T00:46:14.422Z,1.55
2023-04-25T00:51:23.815Z,1.83
2023-04-25T00:56:32.581Z,2.17
2023-04-25T01:01:45.145Z,2.80
2023-04-25T01:06:54.220Z,2.00
2023-04-25T01:12:03.899Z,2.80
2023-04-25T01:17:14.496Z,2.85
2023-04-25T01:22:19.632Z,2.65
2023-04-25T01:27:24.802Z,2.47
2023-04-25T01:32:29.267Z,2.20
2023-04-25T01:37:34.391Z,2.20
2023-04-25T01:42:44.956Z,2.20
2023-04-25T01:47:54.227Z,2.25
2023-04-25T01:53:04.415Z,1.90
2023-04-25T01:58:10.442Z,2.60
2023-04-25T02:03:34.180Z,2.35
2023-04-25T02:08:41.033Z,2.30
2023-04-25T02:13:49.986Z,2.08
2023-04-25T02:19:11.159Z,2.97
2023-04-25T02:24:21.312Z,2.22
2023-04-25T02:29:29.994Z,2.78
2023-04-25T02:34:38.678Z,2.53
2023-04-25T02:39:43.723Z,2.58
2023-04-25T02:44:52.448Z,2.78
2023-04-25T02:49:56.205Z,2.17
2023-04-25T02:55:01.285Z,2.58
2023-04-25T03:00:15.304Z,2.17
2023-04-25T03:05:24.275Z,2.10
2023-04-25T03:10:29.405Z,2.70
2023-04-25T03:15:37.622Z,2.35
2023-04-25T03:20:46.441Z,2.83
2023-04-25T03:25:56.536Z,2.38
2023-04-25T03:31:05.448Z,2.78
2023-04-25T03:36:10.623Z,2.40
2023-04-25T03:41:21.191Z,2.37
2023-04-25T03:46:34.936Z,2.50
2023-04-25T03:51:43.835Z,2.88
2023-04-25T03:56:49.574Z,2.85
2023-04-25T04:02:01.905Z,3.17
2023-04-25T04:07:12.176Z,2.88
2023-04-25T04:12:26.299Z,2.95
2023-04-25T04:17:35.585Z,3.20
2023-04-25T04:22:44.486Z,2.75
2023-04-25T04:33:12.501Z,3.58
2023-04-25T04:38:22.845Z,3.15
2023-04-25T04:43:35.027Z,3.80
2023-04-25T04:48:57.528Z,4.00
2023-04-25T04:54:39.762Z,3.50
2023-04-25T05:00:11.724Z,4.40
2023-04-25T05:05:34.063Z,4.32
2023-04-25T05:11:05.976Z,3.92
2023-04-25T05:16:33.529Z,3.72
2023-04-25T05:21:54.881Z,5.22
2023-04-25T05:27:18.292Z,4.55
2023-04-25T05:32:44.339Z,4.50
2023-04-25T05:37:53.444Z,5.43
2023-04-25T05:43:10.056Z,5.20
2023-04-25T05:48:46.329Z,5.10
2023-04-25T05:54:13.613Z,5.32
2023-04-25T05:59:23.192Z,7.55
2023-04-25T06:04:34.060Z,6.88
2023-04-25T06:09:39.940Z,6.43
2023-04-25T06:14:51.356Z,5.72
2023-04-25T06:20:01.572Z,4.47
2023-04-25T06:25:11.195Z,4.03
2023-04-25T06:30:23.632Z,4.47
2023-04-25T06:35:31.489Z,3.67
2023-04-25T06:40:40.711Z,3.83
2023-04-25T06:45:51.511Z,3.72
2023-04-25T06:51:03.405Z,4.17
2023-04-25T06:56:12.316Z,5.35
2023-04-25T07:01:27.587Z,4.03
2023-04-25T07:06:43.389Z,3.83
2023-04-25T07:11:48.120Z,4.53
2023-04-25T07:16:58.153Z,2.47
2023-04-25T07:22:05.110Z,3.00
2023-04-25T07:27:15.348Z,3.70
2023-04-25T07:32:33.855Z,3.15
2023-04-25T07:37:44.285Z,3.95
2023-04-25T07:42:51.454Z,2.92
2023-04-25T07:48:06.834Z,2.65
2023-04-25T07:53:20.119Z,3.75
2023-04-25T07:58:36.342Z,2.83
2023-04-25T08:03:42.454Z,2.28
2023-04-25T08:08:59.505Z,2.97
2023-04-25T08:14:10.773Z,2.88
2023-04-25T08:19:15.789Z,3.33
2023-04-25T08:24:26.938Z,3.15
2023-04-25T08:29:31.283Z,3.00
2023-04-25T08:34:43.143Z,2.90
2023-04-25T08:39:54.388Z,3.38
2023-04-25T08:50:20.368Z,3.85
2023-04-25T08:55:31.759Z,2.63
2023-04-25T09:00:36.814Z,2.85
2023-04-25T09:05:46.403Z,3.45
2023-04-25T09:10:59.055Z,3.80
2023-04-25T09:16:08.189Z,2.50
2023-04-25T09:21:37.292Z,3.13
2023-04-25T09:26:48.808Z,2.83
2023-04-25T09:32:13.712Z,2.72
2023-04-25T09:37:22.662Z,2.63
2023-04-25T09:42:51.574Z,2.70
2023-04-25T09:48:07.131Z,2.60
2023-04-25T09:53:19.425Z,2.08
2023-04-25T09:58:43.149Z,1.70
2023-04-25T10:03:53.840Z,1.77
2023-04-25T10:09:27.981Z,1.80
2023-04-25T10:14:33.772Z,1.45
2023-04-25T10:19:37.891Z,1.33
2023-04-25T10:24:48.411Z,1.30
2023-04-25T10:30:05.961Z,1.48
2023-04-25T10:35:17.642Z,1.38
2023-04-25T10:40:24.580Z,0.90
2023-04-25T10:45:30.037Z,0.98
2023-04-25T10:50:40.286Z,0.70
2023-04-25T10:55:52.924Z,0.90
2023-04-25T11:00:58.311Z,0.70
2023-04-25T11:06:09.503Z,0.75
2023-04-25T11:11:13.826Z,0.80
2023-04-25T11:16:27.498Z,0.70
2023-04-25T11:21:32.807Z,0.60
2023-04-25T11:26:38.649Z,0.75
2023-04-25T11:31:47.582Z,0.70
2023-04-25T11:36:56.431Z,0.50
2023-04-25T11:42:08.084Z,0.88
2023-04-25T11:47:34.568Z,0.88
2023-04-25T11:52:40.236Z,0.90
2023-04-25T11:57:45.063Z,0.82
2023-04-25T12:02:58.696Z,1.30
2023-04-25T12:08:14.553Z,0.85
2023-04-25T12:13:25.664Z,0.90
2023-04-25T12:18:31.354Z,1.00
2023-04-25T12:23:35.052Z,0.90
2023-04-25T12:28:38.757Z,1.17
2023-04-25T12:33:48.884Z,1.13
2023-04-25T12:38:52.921Z,0.95
2023-04-25T12:43:57.286Z,1.00
2023-04-25T12:54:26.902Z,0.95
2023-04-25T12:55:52.533Z,0.90
2023-04-25T12:59:35.661Z,0.98
2023-04-25T13:04:46.590Z,1.08
2023-04-25T13:09:55.319Z,1.10
2023-04-25T13:15:04.176Z,1.13
2023-04-25T13:20:11.077Z,1.45
2023-04-25T13:25:19.921Z,1.17
2023-04-25T13:30:23.720Z,1.10
2023-04-25T13:35:34.250Z,1.00
2023-04-25T13:40:37.947Z,1.20
2023-04-25T13:45:41.922Z,1.00
2023-04-25T13:50:47.323Z,1.30
2023-04-25T13:55:51.660Z,1.67
2023-04-25T14:00:55.389Z,1.08
2023-04-25T14:06:06.266Z,1.27
2023-04-25T14:11:14.986Z,1.30
2023-04-25T14:16:24.117Z,1.40
2023-04-25T14:21:29.522Z,1.50
2023-04-25T14:26:38.359Z,1.65
2023-04-25T14:31:47.451Z,1.30
2023-04-25T14:36:57.732Z,1.30
2023-04-25T14:42:06.827Z,1.48
2023-04-25T14:47:10.701Z,1.38
2023-04-25T14:52:20.991Z,1.40
2023-04-25T14:57:29.790Z,1.33
2023-04-25T15:02:33.852Z,1.55
2023-04-25T15:07:44.028Z,1.48
2023-04-25T15:12:48.352Z,1.55
2023-04-25T15:17:59.229Z,1.33
2023-04-25T15:23:09.739Z,1.10
2023-04-25T15:28:18.522Z,1.50
2023-04-25T15:33:27.654Z,1.20
2023-04-25T15:38:32.816Z,1.15
2023-04-25T15:43:41.669Z,2.77
2023-04-25T15:48:46.034Z,2.40
2023-04-25T15:53:56.396Z,2.00
2023-04-25T15:59:05.102Z,2.38
2023-04-25T16:04:14.404Z,1.60
2023-04-25T16:09:24.631Z,1.50
2023-04-25T16:14:34.282Z,1.60
2023-04-25T16:19:38.160Z,1.67
2023-04-25T16:24:48.242Z,1.90
2023-04-25T16:29:57.084Z,2.23
2023-04-25T16:35:06.366Z,2.33
2023-04-25T16:40:16.480Z,1.95
2023-04-25T16:45:26.260Z,2.53
2023-04-25T16:50:29.970Z,2.50
2023-04-25T16:55:35.101Z,2.30
2023-04-25T17:00:39.202Z,2.00
2023-04-25T17:05:51.606Z,2.05
2023-04-25T17:11:02.015Z,1.83
2023-04-25T17:16:11.942Z,2.20
2023-04-25T17:21:15.878Z,2.20
2023-04-25T17:26:21.002Z,2.15
2023-04-25T17:31:29.984Z,2.67
2023-04-25T17:36:39.546Z,2.40
2023-04-25T17:41:49.726Z,3.60
2023-04-25T17:46:53.730Z,2.70
2023-04-25T17:52:00.356Z,2.92
2023-04-25T17:57:05.652Z,2.72
2023-04-25T18:02:14.424Z,3.47
2023-04-25T18:07:23.622Z,2.90
2023-04-25T18:12:34.474Z,3.40
2023-04-25T18:17:43.247Z,3.35
2023-04-25T18:22:52.186Z,3.42
2023-04-25T18:28:02.316Z,3.35
2023-04-25T18:33:11.406Z,3.47
2023-04-25T18:38:16.961Z,2.65
2023-04-25T18:43:31.648Z,3.10
2023-04-25T18:48:35.743Z,2.70
2023-04-25T18:53:39.501Z,2.65
2023-04-25T18:58:51.087Z,3.17
2023-04-25T19:04:02.265Z,3.70
2023-04-25T19:09:13.462Z,2.72
2023-04-25T19:14:18.689Z,3.35
2023-04-25T19:19:27.522Z,3.20
2023-04-25T19:24:36.293Z,3.38
2023-04-25T19:29:48.310Z,3.10
2023-04-25T19:34:57.067Z,2.85
2023-04-25T19:40:00.887Z,2.78
2023-04-25T19:45:07.638Z,2.67
2023-04-25T19:50:16.405Z,3.15
2023-04-25T19:55:25.481Z,2.78
2023-04-25T20:00:35.560Z,3.08
2023-04-25T20:05:39.252Z,2.92
2023-04-25T20:10:49.444Z,3.03
2023-04-25T20:16:01.994Z,3.15
2023-04-25T20:21:11.444Z,3.28
2023-04-25T20:26:22.529Z,3.28
2023-04-25T20:36:43.097Z,2.78
2023-04-25T20:41:47.011Z,3.30
2023-04-25T20:46:57.600Z,2.95
2023-04-25T20:52:02.843Z,3.58
2023-04-25T20:57:06.681Z,3.05
2023-04-25T21:02:16.972Z,3.55
2023-04-25T21:07:26.659Z,2.90
2023-04-25T21:12:36.228Z,3.30
2023-04-25T21:17:47.713Z,3.22
2023-04-25T21:28:07.992Z,3.90
2023-04-25T21:33:13.172Z,3.33
2023-04-25T21:38:18.477Z,3.30
2023-04-25T21:43:22.889Z,2.90
2023-04-25T21:48:35.373Z,3.17
2023-04-25T21:53:44.113Z,3.88
2023-04-25T21:58:53.124Z,3.30
2023-04-25T22:03:58.725Z,3.50
2023-04-25T22:09:07.546Z,3.63
2023-04-25T22:14:11.849Z,4.30
2023-04-25T22:19:21.989Z,4.32
2023-04-25T22:24:30.995Z,3.72
2023-04-25T22:29:40.357Z,3.88
2023-04-25T22:34:45.615Z,4.00
2023-04-25T22:39:54.391Z,4.38
2023-04-25T22:45:03.081Z,4.35
2023-04-25T22:50:16.958Z,4.65
2023-04-25T22:55:26.888Z,4.38
2023-04-25T23:00:30.671Z,5.00
2023-04-25T23:05:40.739Z,5.35
2023-04-25T23:10:44.660Z,4.18
2023-04-25T23:15:53.378Z,4.95
2023-04-25T23:21:04.006Z,5.05
2023-04-25T23:26:08.917Z,5.00
2023-04-25T23:31:17.755Z,5.22
2023-04-25T23:36:28.076Z,5.32
2023-04-25T23:41:32.158Z,5.50
2023-04-25T23:46:41.631Z,5.90
2023-04-25T23:51:46.986Z,6.50
2023-04-25T23:56:50.771Z,5.38
